createdAt,value
2023-02-14T00:02:00.223Z,22.42
2023-02-14T00:04:26.943Z,19.73
2023-02-14T00:06:53.679Z,24.48
2023-02-14T00:09:20.637Z,29.10
2023-02-14T00:11:47.388Z,30.58
2023-02-14T00:14:32.566Z,27.30
2023-02-14T00:16:59.348Z,23.63
2023-02-14T00:19:26.260Z,16.05
2023-02-14T00:21:52.977Z,15.63
2023-02-14T00:24:21.487Z,15.40
2023-02-14T00:26:48.487Z,18.88
2023-02-14T00:29:17.164Z,21.23
2023-02-14T00:31:44.072Z,17.90
2023-02-14T00:34:11.208Z,20.50
2023-02-14T00:36:37.960Z,15.38
2023-02-14T00:39:05.463Z,23.67
2023-02-14T00:41:32.287Z,33.42
2023-02-14T00:43:58.984Z,37.47
2023-02-14T00:46:25.748Z,36.30
2023-02-14T00:48:52.781Z,38.85
2023-02-14T00:51:19.652Z,26.35
2023-02-14T00:53:46.803Z,25.77
2023-02-14T00:56:13.636Z,37.63
2023-02-14T00:58:40.715Z,54.55
2023-02-14T01:01:07.859Z,29.52
2023-02-14T01:03:34.902Z,22.17
2023-02-14T01:06:01.751Z,20.27
2023-02-14T01:08:28.439Z,24.33
2023-02-14T01:10:55.110Z,19.23
2023-02-14T01:13:21.864Z,17.83
2023-02-14T01:15:50.404Z,18.75
2023-02-14T01:18:17.613Z,25.30
2023-02-14T01:20:44.314Z,26.95
2023-02-14T01:23:10.988Z,21.13
2023-02-14T01:25:38.287Z,18.08
2023-02-14T01:28:05.630Z,18.83
2023-02-14T01:30:32.324Z,15.70
2023-02-14T01:32:59.194Z,13.35
2023-02-14T01:35:25.874Z,11.13
2023-02-14T01:37:52.595Z,13.57
2023-02-14T01:40:19.472Z,12.13
2023-02-14T01:42:46.108Z,14.30
2023-02-14T01:45:22.862Z,14.00
2023-02-14T01:47:53.574Z,15.68
2023-02-14T01:50:22.704Z,15.48
2023-02-14T01:53:23.852Z,15.02
2023-02-14T01:55:54.326Z,14.52
2023-02-14T01:58:22.017Z,13.35
2023-02-14T02:00:57.865Z,15.05
2023-02-14T02:03:30.412Z,12.45
2023-02-14T02:06:00.603Z,17.98
2023-02-14T02:08:27.226Z,13.35
2023-02-14T02:10:53.969Z,18.25
2023-02-14T02:13:21.200Z,20.23
2023-02-14T02:16:17.367Z,17.63
2023-02-14T02:18:58.854Z,17.70
2023-02-14T02:21:44.196Z,20.80
2023-02-14T02:24:24.361Z,23.23
2023-02-14T02:26:51.220Z,24.58
2023-02-14T02:29:43.633Z,23.48
2023-02-14T02:32:22.385Z,24.00
2023-02-14T02:35:13.264Z,24.05
2023-02-14T02:37:57.986Z,23.75
2023-02-14T02:40:49.851Z,20.52
2023-02-14T02:43:37.725Z,24.85
2023-02-14T02:46:30.990Z,20.95
2023-02-14T02:49:03.646Z,21.67
2023-02-14T02:52:07.088Z,23.37
2023-02-14T02:54:35.397Z,19.77
2023-02-14T02:57:02.898Z,19.38
2023-02-14T02:59:37.960Z,19.67
2023-02-14T03:02:18.770Z,20.00
2023-02-14T03:04:53.146Z,19.75
2023-02-14T03:07:40.479Z,65.47
2023-02-14T03:10:26.614Z,36.63
2023-02-14T03:12:56.267Z,42.28
2023-02-14T03:15:28.583Z,48.03
2023-02-14T03:18:41.120Z,43.67
2023-02-14T03:21:31.368Z,27.05
2023-02-14T03:24:06.517Z,20.70
2023-02-14T03:26:59.390Z,32.63
2023-02-14T03:29:34.144Z,27.48
2023-02-14T03:32:11.872Z,29.75
2023-02-14T03:34:46.953Z,23.35
2023-02-14T03:38:00.141Z,31.33
2023-02-14T03:40:29.717Z,27.95
2023-02-14T03:43:17.919Z,26.80
2023-02-14T03:45:47.535Z,19.88
2023-02-14T03:48:14.722Z,13.00
2023-02-14T03:50:42.237Z,20.15
2023-02-14T03:53:09.532Z,22.95
2023-02-14T03:55:59.714Z,22.95
2023-02-14T03:58:34.974Z,19.80
2023-02-14T04:01:21.026Z,23.30
2023-02-14T04:03:47.825Z,20.17
2023-02-14T04:06:16.748Z,22.45
2023-02-14T04:08:43.385Z,21.45
2023-02-14T04:11:10.028Z,31.80
2023-02-14T04:13:37.164Z,21.60
2023-02-14T04:16:04.078Z,18.95
2023-02-14T04:18:49.824Z,19.05
2023-02-14T04:21:16.843Z,21.63
2023-02-14T04:23:43.453Z,18.20
2023-02-14T04:26:10.082Z,18.17
2023-02-14T04:28:36.832Z,22.08
2023-02-14T04:31:04.948Z,24.60
2023-02-14T04:33:31.737Z,26.98
2023-02-14T04:35:58.768Z,47.60
2023-02-14T04:38:25.492Z,45.42
2023-02-14T04:40:52.235Z,45.00
2023-02-14T04:43:19.374Z,48.28
2023-02-14T04:45:46.938Z,48.83
2023-02-14T04:48:13.510Z,35.55
2023-02-14T04:50:40.208Z,30.83
2023-02-14T04:53:07.001Z,24.67
2023-02-14T04:55:33.622Z,26.17
2023-02-14T04:58:00.327Z,40.10
2023-02-14T05:00:27.090Z,30.08
2023-02-14T05:02:53.987Z,25.35
2023-02-14T05:05:20.709Z,23.55
2023-02-14T05:07:47.943Z,22.83
2023-02-14T05:10:14.937Z,20.25
2023-02-14T05:12:41.733Z,20.23
2023-02-14T05:15:08.982Z,24.20
2023-02-14T05:17:36.239Z,23.90
2023-02-14T05:20:04.408Z,29.85
2023-02-14T05:22:31.077Z,28.73
2023-02-14T05:24:57.774Z,27.30
2023-02-14T05:27:24.385Z,35.03
2023-02-14T05:29:51.125Z,46.35
2023-02-14T05:32:17.796Z,113.25
2023-02-14T05:34:44.536Z,72.13
2023-02-14T05:37:11.238Z,49.10
2023-02-14T05:39:37.898Z,37.75
2023-02-14T05:42:04.591Z,34.80
2023-02-14T05:44:31.370Z,29.17
2023-02-14T05:46:58.047Z,31.25
2023-02-14T05:49:24.629Z,32.17
2023-02-14T05:51:51.456Z,38.35
2023-02-14T05:54:18.085Z,36.00
2023-02-14T05:56:44.762Z,43.88
2023-02-14T05:59:11.452Z,56.53
2023-02-14T06:01:38.143Z,73.88
2023-02-14T06:04:04.928Z,64.97
2023-02-14T06:06:31.625Z,52.60
2023-02-14T06:08:58.321Z,54.78
2023-02-14T06:11:25.050Z,44.30
2023-02-14T06:13:51.759Z,51.15
2023-02-14T06:16:18.447Z,45.80
2023-02-14T06:18:45.160Z,49.67
2023-02-14T06:21:11.909Z,54.05
2023-02-14T06:23:38.656Z,67.35
2023-02-14T06:26:05.414Z,115.45
2023-02-14T06:28:32.157Z,69.20
2023-02-14T06:30:59.332Z,64.78
2023-02-14T06:33:26.333Z,61.38
2023-02-14T06:35:55.849Z,56.00
2023-02-14T06:38:22.560Z,55.95
2023-02-14T06:40:49.160Z,62.92
2023-02-14T06:43:15.796Z,69.00
2023-02-14T06:45:43.802Z,64.38
2023-02-14T06:48:10.454Z,61.67
2023-02-14T06:50:37.152Z,62.42
2023-02-14T06:53:03.783Z,86.20
2023-02-14T06:55:30.438Z,52.50
2023-02-14T06:57:57.152Z,49.13
2023-02-14T07:00:23.964Z,45.17
2023-02-14T07:02:50.738Z,60.42
2023-02-14T07:05:19.042Z,67.25
2023-02-14T07:07:46.132Z,51.05
2023-02-14T07:10:13.011Z,48.97
2023-02-14T07:12:39.882Z,53.70
2023-02-14T07:15:11.818Z,83.47
2023-02-14T07:17:38.570Z,40.22
2023-02-14T07:20:06.902Z,21.05
2023-02-14T07:22:34.012Z,26.75
2023-02-14T07:25:00.797Z,26.83
2023-02-14T07:27:27.595Z,26.67
2023-02-14T07:29:54.452Z,25.30
2023-02-14T07:32:21.284Z,27.30
2023-02-14T07:34:48.204Z,10.80
2023-02-14T07:37:15.107Z,21.58
2023-02-14T07:39:41.813Z,22.70
2023-02-14T07:42:08.735Z,31.27
2023-02-14T07:44:35.502Z,25.40
2023-02-14T07:47:02.163Z,22.05
2023-02-14T07:49:28.825Z,16.15
2023-02-14T07:51:55.519Z,24.17
2023-02-14T07:54:22.220Z,34.05
2023-02-14T07:56:49.149Z,26.42
2023-02-14T07:59:15.933Z,18.73
2023-02-14T08:01:42.679Z,26.55
2023-02-14T08:04:09.324Z,37.22
2023-02-14T08:06:35.984Z,27.67
2023-02-14T08:09:02.657Z,25.55
2023-02-14T08:11:48.116Z,20.45
2023-02-14T08:14:14.754Z,16.15
2023-02-14T08:16:41.353Z,22.77
2023-02-14T08:19:08.063Z,17.58
2023-02-14T08:21:34.809Z,12.18
2023-02-14T08:24:01.426Z,20.33
2023-02-14T08:26:28.225Z,15.80
2023-02-14T08:28:54.841Z,15.25
2023-02-14T08:31:35.105Z,15.90
2023-02-14T08:34:02.458Z,10.98
2023-02-14T08:36:29.149Z,20.92
2023-02-14T08:38:57.655Z,16.65
2023-02-14T08:41:24.333Z,12.07
2023-02-14T08:43:51.041Z,18.98
2023-02-14T08:46:17.738Z,10.50
2023-02-14T08:48:44.499Z,18.95
2023-02-14T08:51:14.247Z,18.90
2023-02-14T08:53:41.090Z,14.68
2023-02-14T08:56:09.309Z,19.00
2023-02-14T08:58:36.077Z,18.77
2023-02-14T09:01:08.439Z,19.40
2023-02-14T09:03:38.134Z,21.38
2023-02-14T09:06:06.128Z,25.98
2023-02-14T09:08:35.134Z,16.60
2023-02-14T09:11:15.151Z,30.65
2023-02-14T09:13:42.559Z,22.63
2023-02-14T09:16:10.365Z,16.08
2023-02-14T09:18:37.500Z,23.10
2023-02-14T09:21:07.993Z,21.95
2023-02-14T09:23:34.662Z,20.95
2023-02-14T09:26:02.540Z,6.75
2023-02-14T09:28:29.401Z,18.17
2023-02-14T09:30:56.732Z,28.15
2023-02-14T09:33:24.527Z,17.13
2023-02-14T09:36:09.974Z,12.70
2023-02-14T09:38:36.632Z,15.63
2023-02-14T09:41:07.281Z,13.27
2023-02-14T09:44:35.598Z,9.18
2023-02-14T09:47:20.340Z,17.38
2023-02-14T09:49:47.267Z,6.38
2023-02-14T09:52:16.361Z,14.93
2023-02-14T09:54:44.427Z,14.50
2023-02-14T09:57:20.134Z,19.85
2023-02-14T09:59:51.922Z,17.35
2023-02-14T10:02:37.202Z,11.88
2023-02-14T10:05:34.836Z,12.95
2023-02-14T10:08:31.240Z,12.52
2023-02-14T10:11:22.965Z,7.50
2023-02-14T10:13:52.935Z,10.43
2023-02-14T10:16:27.182Z,17.25
2023-02-14T10:19:07.787Z,12.93
2023-02-14T10:21:38.380Z,12.15
2023-02-14T10:24:12.284Z,12.60
2023-02-14T10:29:15.140Z,10.60
2023-02-14T10:31:56.993Z,14.35
2023-02-14T10:34:38.234Z,16.83
2023-02-14T10:37:44.592Z,16.85
2023-02-14T10:40:32.447Z,6.60
2023-02-14T10:43:20.811Z,18.65
2023-02-14T10:45:50.562Z,7.15
2023-02-14T10:48:35.284Z,13.35
2023-02-14T10:51:15.606Z,11.23
2023-02-14T10:53:54.335Z,13.18
2023-02-14T10:56:27.993Z,18.55
2023-02-14T10:58:55.793Z,14.73
2023-02-14T11:01:22.557Z,10.93
2023-02-14T11:03:58.680Z,17.73
2023-02-14T11:06:25.307Z,15.25
2023-02-14T11:08:52.020Z,11.40
2023-02-14T11:11:25.142Z,22.27
2023-02-14T11:13:51.784Z,13.23
2023-02-14T11:16:35.504Z,14.10
2023-02-14T11:19:29.257Z,17.58
2023-02-14T11:21:57.500Z,10.75
2023-02-14T11:24:39.366Z,15.55
2023-02-14T11:27:12.082Z,14.75
2023-02-14T11:29:41.680Z,17.92
2023-02-14T11:32:13.603Z,9.55
2023-02-14T11:34:52.637Z,8.70
2023-02-14T11:37:22.249Z,12.77
2023-02-14T11:39:49.942Z,18.35
2023-02-14T11:42:42.411Z,16.08
2023-02-14T11:45:29.002Z,5.50
2023-02-14T11:48:36.528Z,17.83
2023-02-14T11:51:05.508Z,14.25
2023-02-14T11:53:48.598Z,14.88
2023-02-14T11:56:15.694Z,4.80
2023-02-14T11:58:55.461Z,8.48
2023-02-14T12:01:26.667Z,17.73
2023-02-14T12:03:53.863Z,17.67
2023-02-14T12:06:30.507Z,9.50
2023-02-14T12:09:24.658Z,13.45
2023-02-14T12:11:58.963Z,12.57
2023-02-14T12:14:28.909Z,9.23
2023-02-14T12:17:01.126Z,13.63
2023-02-14T12:19:50.757Z,16.60
2023-02-14T12:22:20.276Z,12.77
2023-02-14T12:25:05.803Z,11.88
2023-02-14T12:27:46.203Z,9.00
2023-02-14T12:30:18.360Z,7.93
2023-02-14T12:32:53.823Z,15.73
2023-02-14T12:35:50.778Z,5.53
2023-02-14T12:38:51.853Z,6.15
2023-02-14T12:41:37.984Z,11.75
2023-02-14T12:44:16.269Z,17.25
2023-02-14T12:47:02.454Z,14.27
2023-02-14T12:49:38.152Z,11.55
2023-02-14T12:52:40.743Z,8.63
2023-02-14T12:55:16.253Z,7.70
2023-02-14T12:58:00.227Z,10.35
2023-02-14T13:00:35.919Z,9.18
2023-02-14T13:03:11.504Z,10.30
2023-02-14T13:05:44.199Z,13.80
2023-02-14T13:08:35.430Z,9.30
2023-02-14T13:11:23.664Z,7.45
2023-02-14T13:14:04.611Z,11.38
2023-02-14T13:16:54.705Z,8.35
2023-02-14T13:19:36.767Z,13.15
2023-02-14T13:22:04.610Z,11.65
2023-02-14T13:24:39.557Z,7.13
2023-02-14T13:27:07.318Z,13.52
2023-02-14T13:29:42.608Z,10.25
2023-02-14T13:32:09.689Z,4.05
2023-02-14T13:34:41.963Z,11.95
2023-02-14T13:37:11.133Z,14.82
2023-02-14T13:39:54.647Z,9.10
2023-02-14T13:42:49.886Z,13.25
2023-02-14T13:45:37.772Z,20.35
2023-02-14T13:48:10.564Z,8.10
2023-02-14T13:50:48.914Z,13.13
2023-02-14T13:53:29.350Z,13.20
2023-02-14T13:55:56.117Z,11.15
2023-02-14T13:58:22.929Z,16.95
2023-02-14T14:00:50.447Z,13.52
2023-02-14T14:03:26.251Z,13.73
2023-02-14T14:06:11.912Z,22.50
2023-02-14T14:08:43.402Z,12.02
2023-02-14T14:11:27.432Z,13.38
2023-02-14T14:13:56.416Z,23.30
2023-02-14T14:16:27.218Z,21.70
2023-02-14T14:19:04.885Z,9.77
2023-02-14T14:21:44.811Z,16.20
2023-02-14T14:24:29.076Z,11.60
2023-02-14T14:27:02.264Z,16.27
2023-02-14T14:29:49.102Z,14.20
2023-02-14T14:32:29.490Z,11.80
2023-02-14T14:35:11.001Z,9.02
2023-02-14T14:37:46.752Z,9.98
2023-02-14T14:40:32.831Z,16.73
2023-02-14T14:43:05.745Z,17.25
2023-02-14T14:45:32.653Z,15.20
2023-02-14T14:48:00.457Z,19.48
2023-02-14T14:50:28.785Z,14.98
2023-02-14T14:53:03.135Z,17.77
2023-02-14T14:55:31.238Z,25.55
2023-02-14T14:58:04.157Z,11.02
2023-02-14T15:00:33.484Z,18.17
2023-02-14T15:03:01.447Z,17.58
2023-02-14T15:05:32.776Z,13.43
2023-02-14T15:08:31.233Z,11.85
2023-02-14T15:11:09.698Z,40.58
2023-02-14T15:13:57.482Z,25.70
2023-02-14T15:16:45.216Z,17.38
2023-02-14T15:19:18.014Z,23.67
2023-02-14T15:21:44.889Z,19.73
2023-02-14T15:24:14.171Z,18.48
2023-02-14T15:26:42.892Z,16.27
2023-02-14T15:29:29.445Z,15.38
2023-02-14T15:31:57.353Z,14.05
2023-02-14T15:34:31.804Z,17.75
2023-02-14T15:37:03.716Z,16.27
2023-02-14T15:39:37.072Z,13.93
2023-02-14T15:42:04.977Z,23.30
2023-02-14T15:44:32.277Z,27.92
2023-02-14T15:47:02.245Z,19.08
2023-02-14T15:49:36.794Z,21.95
2023-02-14T15:52:04.851Z,12.15
2023-02-14T15:54:33.409Z,7.38
2023-02-14T15:57:00.159Z,12.07
2023-02-14T15:59:31.355Z,9.13
2023-02-14T16:02:00.558Z,14.02
2023-02-14T16:04:32.057Z,12.23
2023-02-14T16:07:29.228Z,13.10
2023-02-14T16:10:27.411Z,13.50
2023-02-14T16:13:01.135Z,17.25
2023-02-14T16:15:38.665Z,8.32
2023-02-14T16:18:17.907Z,17.77
2023-02-14T16:20:51.173Z,15.05
2023-02-14T16:23:28.124Z,13.25
2023-02-14T16:25:57.311Z,16.95
2023-02-14T16:28:24.004Z,13.23
2023-02-14T16:30:55.801Z,14.90
2023-02-14T16:33:24.311Z,16.80
2023-02-14T16:35:51.139Z,13.80
2023-02-14T16:38:18.667Z,17.73
2023-02-14T16:40:46.916Z,18.20
2023-02-14T16:43:17.520Z,20.10
2023-02-14T16:45:44.735Z,16.27
2023-02-14T16:48:11.520Z,22.55
2023-02-14T16:50:39.983Z,18.10
2023-02-14T16:53:08.119Z,20.58
2023-02-14T16:55:34.894Z,16.45
2023-02-14T16:58:01.587Z,10.80
2023-02-14T17:00:28.479Z,15.68
2023-02-14T17:03:04.499Z,19.45
2023-02-14T17:05:32.884Z,18.85
2023-02-14T17:08:01.538Z,19.80
2023-02-14T17:10:28.390Z,18.83
2023-02-14T17:12:55.615Z,15.50
2023-02-14T17:15:24.540Z,21.58
2023-02-14T17:17:51.769Z,19.15
2023-02-14T17:20:20.410Z,19.27
2023-02-14T17:22:47.080Z,20.77
2023-02-14T17:25:14.265Z,19.98
2023-02-14T17:27:44.045Z,15.43
2023-02-14T17:30:12.390Z,15.05
2023-02-14T17:32:39.200Z,22.60
2023-02-14T17:35:08.854Z,17.77
2023-02-14T17:37:36.285Z,20.42
2023-02-14T17:40:03.892Z,15.63
2023-02-14T17:42:35.291Z,19.10
2023-02-14T17:45:02.220Z,17.70
2023-02-14T17:47:29.538Z,18.13
2023-02-14T17:49:57.244Z,19.77
2023-02-14T17:52:24.241Z,16.42
2023-02-14T17:54:51.023Z,15.05
2023-02-14T17:57:17.781Z,20.85
2023-02-14T17:59:45.428Z,21.65
2023-02-14T18:02:12.325Z,24.08
2023-02-14T18:04:39.261Z,25.17
2023-02-14T18:07:06.008Z,32.72
2023-02-14T18:09:32.724Z,33.90
2023-02-14T18:11:59.429Z,40.92
2023-02-14T18:14:26.285Z,34.42
2023-02-14T18:16:52.959Z,33.78
2023-02-14T18:19:19.753Z,41.47
2023-02-14T18:21:46.445Z,23.67
2023-02-14T18:24:13.280Z,31.95
2023-02-14T18:26:40.617Z,21.65
2023-02-14T18:29:07.583Z,23.00
2023-02-14T18:31:35.110Z,19.38
2023-02-14T18:34:01.879Z,22.27
2023-02-14T18:36:28.737Z,19.80
2023-02-14T18:38:55.429Z,23.48
2023-02-14T18:41:22.571Z,23.60
2023-02-14T18:43:49.380Z,49.45
2023-02-14T18:46:26.511Z,30.65
2023-02-14T18:48:53.453Z,27.33
2023-02-14T18:51:22.021Z,19.55
2023-02-14T18:53:52.282Z,12.30
2023-02-14T18:56:23.254Z,16.38
2023-02-14T18:58:52.863Z,21.17
2023-02-14T19:01:21.448Z,18.15
2023-02-14T19:03:49.764Z,16.50
2023-02-14T19:06:16.688Z,18.80
2023-02-14T19:08:43.447Z,19.70
2023-02-14T19:11:14.514Z,15.95
2023-02-14T19:13:48.742Z,13.02
2023-02-14T19:16:18.168Z,20.30
2023-02-14T19:18:45.386Z,18.48
2023-02-14T19:21:20.535Z,19.58
2023-02-14T19:23:47.350Z,19.35
2023-02-14T19:26:16.022Z,18.13
2023-02-14T19:28:43.092Z,18.40
2023-02-14T19:31:10.357Z,17.33
2023-02-14T19:33:41.515Z,20.95
2023-02-14T19:36:09.304Z,19.20
2023-02-14T19:38:36.124Z,13.82
2023-02-14T19:41:02.999Z,17.00
2023-02-14T19:43:29.979Z,24.88
2023-02-14T19:45:56.717Z,21.80
2023-02-14T19:48:23.970Z,25.10
2023-02-14T19:50:50.927Z,26.45
2023-02-14T19:53:17.614Z,22.15
2023-02-14T19:55:44.279Z,30.33
2023-02-14T19:58:10.950Z,24.23
2023-02-14T20:00:38.081Z,13.32
2023-02-14T20:03:06.215Z,20.77
2023-02-14T20:05:33.067Z,22.70
2023-02-14T20:07:59.852Z,27.45
2023-02-14T20:10:26.700Z,32.35
2023-02-14T20:12:53.317Z,31.90
2023-02-14T20:15:20.161Z,29.65
2023-02-14T20:17:47.093Z,18.00
2023-02-14T20:20:13.954Z,19.90
2023-02-14T20:22:41.250Z,21.80
2023-02-14T20:25:09.079Z,10.52
2023-02-14T20:27:36.414Z,9.93
2023-02-14T20:30:03.908Z,12.35
2023-02-14T20:32:30.749Z,51.72
2023-02-14T20:34:58.037Z,34.53
2023-02-14T20:37:25.410Z,27.80
2023-02-14T20:39:52.159Z,57.70
2023-02-14T20:42:18.836Z,51.50
2023-02-14T20:44:45.793Z,129.85
2023-02-14T20:47:12.652Z,46.95
2023-02-14T20:49:40.064Z,94.78
2023-02-14T20:52:06.730Z,65.22
2023-02-14T20:54:33.438Z,56.85
2023-02-14T20:57:00.119Z,46.28
2023-02-14T20:59:27.440Z,15.13
2023-02-14T21:01:59.265Z,13.23
2023-02-14T21:04:26.131Z,24.10
2023-02-14T21:06:52.941Z,19.10
2023-02-14T21:09:20.810Z,41.58
2023-02-14T21:11:47.576Z,39.22
2023-02-14T21:14:14.353Z,185.65
2023-02-14T21:16:41.154Z,37.75
2023-02-14T21:19:07.894Z,57.47
2023-02-14T21:21:36.453Z,73.22
2023-02-14T21:24:05.102Z,46.35
2023-02-14T21:26:31.815Z,46.83
2023-02-14T21:28:58.632Z,64.40
2023-02-14T21:31:25.781Z,49.00
2023-02-14T21:33:53.605Z,49.17
2023-02-14T21:36:21.519Z,40.55
2023-02-14T21:38:48.188Z,52.67
2023-02-14T21:41:19.656Z,43.13
2023-02-14T21:43:47.289Z,44.03
2023-02-14T21:46:16.779Z,43.17
2023-02-14T21:49:02.454Z,37.60
2023-02-14T21:51:29.562Z,24.15
2023-02-14T21:53:56.418Z,44.90
2023-02-14T21:56:23.871Z,33.85
2023-02-14T21:58:52.083Z,25.00
2023-02-14T22:01:26.434Z,23.00
2023-02-14T22:03:53.544Z,25.98
2023-02-14T22:06:20.403Z,22.45
2023-02-14T22:08:47.113Z,24.38
2023-02-14T22:11:15.276Z,21.27
2023-02-14T22:13:42.063Z,22.90
2023-02-14T22:16:13.397Z,18.85
2023-02-14T22:18:40.442Z,49.72
2023-02-14T22:21:09.096Z,19.60
2023-02-14T22:23:35.974Z,24.05
2023-02-14T22:26:17.562Z,19.13
2023-02-14T22:28:46.268Z,17.30
2023-02-14T22:31:13.433Z,14.07
2023-02-14T22:33:40.229Z,15.77
2023-02-14T22:36:07.168Z,22.42
2023-02-14T22:38:34.948Z,26.52
2023-02-14T22:41:08.634Z,31.08
2023-02-14T22:46:06.224Z,31.30
2023-02-14T22:48:36.236Z,21.83
2023-02-14T22:51:23.930Z,22.55
2023-02-14T22:53:51.470Z,26.58
2023-02-14T22:56:20.354Z,23.52
2023-02-14T22:58:47.117Z,17.23
2023-02-14T23:01:18.359Z,29.45
2023-02-14T23:03:45.308Z,16.75
2023-02-14T23:06:12.409Z,21.40
2023-02-14T23:08:40.342Z,24.55
2023-02-14T23:11:10.876Z,23.75
2023-02-14T23:13:56.590Z,21.38
2023-02-14T23:16:42.269Z,27.70
2023-02-14T23:19:30.928Z,31.17
2023-02-14T23:21:58.712Z,21.67
2023-02-14T23:24:25.501Z,21.20
2023-02-14T23:26:53.941Z,22.50
2023-02-14T23:29:20.590Z,22.67
2023-02-14T23:31:47.426Z,25.15
2023-02-14T23:34:14.276Z,29.50
2023-02-14T23:36:40.969Z,31.40
2023-02-14T23:39:07.683Z,22.40
2023-02-14T23:41:49.755Z,25.35
2023-02-14T23:44:20.958Z,24.38
2023-02-14T23:46:49.142Z,29.85
2023-02-14T23:49:16.133Z,34.35
2023-02-14T23:51:42.818Z,28.70
2023-02-14T23:54:09.522Z,34.83
2023-02-14T23:56:36.264Z,32.60
2023-02-14T23:59:04.474Z,27.48
